createdAt,value
2022-10-31T00:00:41.353Z,86
2022-10-31T00:01:45.580Z,86
2022-10-31T00:02:50.124Z,87
2022-10-31T00:03:54.544Z,87
2022-10-31T00:04:59.010Z,87
2022-10-31T00:06:03.312Z,87
2022-10-31T00:07:07.838Z,87
2022-10-31T00:08:12.036Z,87
2022-10-31T00:09:16.479Z,87
2022-10-31T00:10:20.934Z,87
2022-10-31T00:11:25.061Z,88
2022-10-31T00:12:29.187Z,87
2022-10-31T00:13:33.271Z,87
2022-10-31T00:14:37.414Z,87
2022-10-31T00:15:41.919Z,87
2022-10-31T00:16:46.042Z,87
2022-10-31T00:17:50.119Z,87
2022-10-31T00:18:54.184Z,87
2022-10-31T00:19:58.327Z,87
2022-10-31T00:21:02.914Z,87
2022-10-31T00:22:06.973Z,87
2022-10-31T00:23:11.502Z,87
2022-10-31T00:24:15.611Z,87
2022-10-31T00:25:20.094Z,87
2022-10-31T00:26:24.338Z,87
2022-10-31T00:27:28.815Z,87
2022-10-31T00:28:32.985Z,87
2022-10-31T00:29:37.090Z,87
2022-10-31T00:30:41.554Z,87
2022-10-31T00:31:45.586Z,86
2022-10-31T00:32:49.882Z,87
2022-10-31T00:33:54.364Z,87
2022-10-31T00:34:58.443Z,87
2022-10-31T00:36:02.502Z,87
2022-10-31T00:37:07.202Z,87
2022-10-31T00:38:11.711Z,87
2022-10-31T00:39:15.810Z,87
2022-10-31T00:40:19.870Z,87
2022-10-31T00:41:23.905Z,87
2022-10-31T00:42:27.994Z,87
2022-10-31T00:43:32.128Z,87
2022-10-31T00:44:36.742Z,87
2022-10-31T00:45:41.186Z,87
2022-10-31T00:46:45.361Z,88
2022-10-31T00:47:49.879Z,87
2022-10-31T00:48:54.031Z,87
2022-10-31T00:49:58.238Z,87
2022-10-31T00:51:02.614Z,87
2022-10-31T00:52:06.825Z,87
2022-10-31T00:53:10.914Z,87
2022-10-31T00:54:15.493Z,87
2022-10-31T00:55:20.141Z,87
2022-10-31T00:56:24.654Z,87
2022-10-31T00:57:29.227Z,87
2022-10-31T00:58:33.818Z,87
2022-10-31T00:59:38.530Z,87
2022-10-31T01:00:44.491Z,87
2022-10-31T01:01:47.557Z,87
2022-10-31T01:02:51.666Z,87
2022-10-31T01:03:56.150Z,87
2022-10-31T01:05:00.325Z,87
2022-10-31T01:06:04.877Z,88
2022-10-31T01:07:08.938Z,87
2022-10-31T01:08:12.989Z,88
2022-10-31T01:09:17.525Z,88
2022-10-31T01:10:21.693Z,87
2022-10-31T01:11:26.194Z,88
2022-10-31T01:12:30.198Z,88
2022-10-31T01:13:42.402Z,88
2022-10-31T01:14:46.609Z,89
2022-10-31T01:15:51.166Z,88
2022-10-31T01:16:55.665Z,88
2022-10-31T01:18:00.036Z,88
2022-10-31T01:19:04.352Z,88
2022-10-31T01:20:08.900Z,88
2022-10-31T01:21:13.130Z,89
2022-10-31T01:22:20.098Z,88
2022-10-31T01:23:24.346Z,88
2022-10-31T01:24:28.746Z,88
2022-10-31T01:25:32.794Z,89
2022-10-31T01:26:36.930Z,89
2022-10-31T01:27:41.575Z,89
2022-10-31T01:28:46.190Z,89
2022-10-31T01:29:50.504Z,89
2022-10-31T01:30:54.831Z,89
2022-10-31T01:32:01.806Z,88
2022-10-31T01:33:05.927Z,89
2022-10-31T01:34:10.438Z,89
2022-10-31T01:35:14.612Z,89
2022-10-31T01:36:18.649Z,89
2022-10-31T01:37:28.246Z,89
2022-10-31T01:38:32.322Z,89
2022-10-31T01:39:36.498Z,89
2022-10-31T01:40:40.966Z,89
2022-10-31T01:41:45.075Z,89
2022-10-31T01:42:49.606Z,88
2022-10-31T01:43:53.601Z,89
2022-10-31T01:44:57.788Z,88
2022-10-31T01:46:01.826Z,88
2022-10-31T01:47:05.972Z,89
2022-10-31T01:48:13.121Z,88
2022-10-31T01:49:17.118Z,88
2022-10-31T01:50:26.858Z,88
2022-10-31T01:51:33.862Z,88
2022-10-31T01:52:37.909Z,88
2022-10-31T01:53:45.005Z,88
2022-10-31T01:54:49.133Z,89
2022-10-31T01:55:53.110Z,89
2022-10-31T01:56:57.478Z,88
2022-10-31T01:58:01.924Z,88
2022-10-31T01:59:08.413Z,88
2022-10-31T02:00:12.637Z,88
2022-10-31T02:01:17.286Z,89
2022-10-31T02:02:21.307Z,89
2022-10-31T02:03:25.257Z,89
2022-10-31T02:04:29.405Z,89
2022-10-31T02:05:33.454Z,89
2022-10-31T02:06:37.466Z,89
2022-10-31T02:07:49.732Z,88
2022-10-31T02:08:53.886Z,89
2022-10-31T02:09:58.474Z,89
2022-10-31T02:11:03.008Z,89
2022-10-31T02:12:07.129Z,89
2022-10-31T02:13:11.617Z,89
2022-10-31T02:14:15.798Z,89
2022-10-31T02:15:19.707Z,89
2022-10-31T02:16:24.342Z,89
2022-10-31T02:17:28.444Z,89
2022-10-31T02:18:32.573Z,89
2022-10-31T02:19:37.093Z,89
2022-10-31T02:20:51.825Z,89
2022-10-31T02:22:06.651Z,89
2022-10-31T02:23:13.769Z,89
2022-10-31T02:24:25.946Z,89
2022-10-31T02:25:40.649Z,88
2022-10-31T02:26:47.894Z,89
2022-10-31T02:28:03.072Z,89
2022-10-31T02:29:16.901Z,89
2022-10-31T02:30:29.014Z,89
2022-10-31T02:31:38.113Z,89
2022-10-31T02:32:52.941Z,89
2022-10-31T02:34:02.699Z,89
2022-10-31T02:35:12.437Z,89
2022-10-31T02:36:26.967Z,89
2022-10-31T02:37:36.193Z,89
2022-10-31T02:38:48.422Z,89
2022-10-31T02:40:00.646Z,89
2022-10-31T02:41:09.817Z,89
2022-10-31T02:42:16.970Z,89
2022-10-31T02:43:21.591Z,89
2022-10-31T02:44:28.605Z,88
2022-10-31T02:45:43.358Z,89
2022-10-31T02:46:52.985Z,89
2022-10-31T02:48:03.334Z,88
2022-10-31T02:49:10.303Z,88
2022-10-31T02:50:19.633Z,89
2022-10-31T02:51:24.014Z,89
2022-10-31T02:52:28.158Z,88
2022-10-31T02:53:32.137Z,89
2022-10-31T02:54:36.278Z,89
2022-10-31T02:55:40.721Z,89
2022-10-31T02:56:55.166Z,89
2022-10-31T02:57:59.564Z,89
2022-10-31T02:59:06.453Z,89
2022-10-31T03:00:11.090Z,89
2022-10-31T03:01:15.726Z,89
2022-10-31T03:02:30.353Z,89
2022-10-31T03:03:42.398Z,89
2022-10-31T03:04:49.557Z,89
2022-10-31T03:06:01.747Z,89
2022-10-31T03:07:11.385Z,88
2022-10-31T03:08:20.994Z,89
2022-10-31T03:09:25.209Z,89
2022-10-31T03:10:35.345Z,89
2022-10-31T03:11:42.481Z,89
2022-10-31T03:12:48.588Z,89
2022-10-31T03:13:50.954Z,89
2022-10-31T03:15:03.238Z,88
2022-10-31T03:16:12.861Z,88
2022-10-31T03:17:22.125Z,88
2022-10-31T03:18:32.238Z,89
2022-10-31T03:19:36.525Z,89
2022-10-31T03:20:41.086Z,89
2022-10-31T03:21:48.107Z,88
2022-10-31T03:23:02.767Z,89
2022-10-31T03:24:06.913Z,89
2022-10-31T03:25:11.040Z,89
2022-10-31T03:26:15.585Z,89
2022-10-31T03:27:20.213Z,89
2022-10-31T03:28:24.663Z,89
2022-10-31T03:29:28.789Z,89
2022-10-31T03:30:32.810Z,88
2022-10-31T03:31:36.921Z,89
2022-10-31T03:32:47.054Z,88
2022-10-31T03:33:51.086Z,89
2022-10-31T03:34:55.270Z,89
2022-10-31T03:35:59.390Z,89
2022-10-31T03:37:03.873Z,88
2022-10-31T03:38:08.127Z,89
2022-10-31T03:39:12.021Z,88
2022-10-31T03:40:16.145Z,88
2022-10-31T03:41:20.633Z,89
2022-10-31T03:42:24.813Z,88
2022-10-31T03:43:29.340Z,89
2022-10-31T03:44:33.402Z,89
2022-10-31T03:45:37.584Z,89
2022-10-31T03:46:42.106Z,89
2022-10-31T03:47:46.247Z,89
2022-10-31T03:48:50.721Z,89
2022-10-31T03:49:54.793Z,89
2022-10-31T03:50:59.093Z,88
2022-10-31T03:52:11.586Z,89
2022-10-31T03:53:23.886Z,89
2022-10-31T03:54:28.447Z,89
2022-10-31T03:55:35.662Z,89
2022-10-31T03:56:47.746Z,89
2022-10-31T03:57:51.834Z,89
2022-10-31T03:58:55.959Z,89
2022-10-31T04:00:05.633Z,89
2022-10-31T04:01:10.238Z,89
2022-10-31T04:02:14.334Z,89
2022-10-31T04:03:18.302Z,89
2022-10-31T04:04:27.957Z,89
2022-10-31T04:05:32.069Z,89
2022-10-31T04:06:36.133Z,89
2022-10-31T04:07:40.190Z,89
2022-10-31T04:08:44.406Z,89
2022-10-31T04:09:54.154Z,89
2022-10-31T04:10:58.520Z,88
2022-10-31T04:12:02.621Z,88
2022-10-31T04:13:07.390Z,88
2022-10-31T04:14:11.834Z,89
2022-10-31T04:15:16.403Z,88
2022-10-31T04:16:20.856Z,88
2022-10-31T04:17:25.014Z,89
2022-10-31T04:18:29.598Z,89
2022-10-31T04:19:34.089Z,89
2022-10-31T04:20:38.212Z,89
2022-10-31T04:21:42.770Z,89
2022-10-31T04:22:46.789Z,89
2022-10-31T04:23:50.945Z,88
2022-10-31T04:24:55.438Z,89
2022-10-31T04:25:59.530Z,89
2022-10-31T04:27:03.633Z,89
2022-10-31T04:28:08.479Z,88
2022-10-31T04:29:12.825Z,88
2022-10-31T04:30:17.407Z,88
2022-10-31T04:31:22.001Z,88
2022-10-31T04:32:26.517Z,88
2022-10-31T04:33:31.457Z,89
2022-10-31T04:34:35.709Z,88
2022-10-31T04:35:40.260Z,88
2022-10-31T04:36:44.261Z,89
2022-10-31T04:37:48.391Z,88
2022-10-31T04:38:52.485Z,89
2022-10-31T04:39:57.089Z,89
2022-10-31T04:41:01.587Z,89
2022-10-31T04:42:06.254Z,89
2022-10-31T04:43:10.821Z,89
2022-10-31T04:44:14.794Z,89
2022-10-31T04:45:21.029Z,88
2022-10-31T04:46:23.456Z,88
2022-10-31T04:47:27.938Z,88
2022-10-31T04:48:32.038Z,88
2022-10-31T04:49:36.157Z,89
2022-10-31T04:50:40.749Z,88
2022-10-31T04:51:44.785Z,88
2022-10-31T04:52:49.517Z,88
2022-10-31T04:53:53.926Z,89
2022-10-31T04:54:58.052Z,88
2022-10-31T04:56:02.145Z,89
2022-10-31T04:57:06.781Z,89
2022-10-31T04:58:10.895Z,88
2022-10-31T04:59:15.484Z,89
2022-10-31T05:00:19.935Z,89
2022-10-31T05:01:24.169Z,89
2022-10-31T05:02:28.096Z,89
2022-10-31T05:03:32.162Z,89
2022-10-31T05:04:36.236Z,90
2022-10-31T05:05:40.241Z,90
2022-10-31T05:06:44.344Z,89
2022-10-31T05:07:48.500Z,89
2022-10-31T05:08:52.981Z,89
2022-10-31T05:09:57.118Z,89
2022-10-31T05:11:03.199Z,89
2022-10-31T05:12:05.763Z,89
2022-10-31T05:13:09.896Z,89
2022-10-31T05:14:14.578Z,88
2022-10-31T05:15:19.057Z,89
2022-10-31T05:16:23.506Z,89
2022-10-31T05:17:27.697Z,89
2022-10-31T05:18:32.249Z,89
2022-10-31T05:19:36.258Z,90
2022-10-31T05:20:40.331Z,90
2022-10-31T05:21:44.386Z,89
2022-10-31T05:22:48.541Z,89
2022-10-31T05:23:52.697Z,89
2022-10-31T05:24:57.257Z,89
2022-10-31T05:26:01.821Z,89
2022-10-31T05:27:06.328Z,90
2022-10-31T05:28:10.394Z,90
2022-10-31T05:29:14.486Z,90
2022-10-31T05:30:18.645Z,90
2022-10-31T05:31:22.682Z,90
2022-10-31T05:32:26.674Z,90
2022-10-31T05:33:30.762Z,90
2022-10-31T05:34:34.950Z,89
2022-10-31T05:35:38.913Z,90
2022-10-31T05:36:43.008Z,90
2022-10-31T05:37:47.125Z,90
2022-10-31T05:38:51.280Z,90
2022-10-31T05:39:55.830Z,90
2022-10-31T05:41:00.308Z,90
2022-10-31T05:42:04.449Z,90
2022-10-31T05:43:08.489Z,90
2022-10-31T05:44:12.683Z,90
2022-10-31T05:45:16.790Z,90
2022-10-31T05:46:21.394Z,90
2022-10-31T05:47:25.340Z,90
2022-10-31T05:48:29.825Z,90
2022-10-31T05:49:33.961Z,90
2022-10-31T05:50:38.001Z,90
2022-10-31T05:51:42.136Z,90
2022-10-31T05:52:46.241Z,90
2022-10-31T05:53:55.891Z,90
2022-10-31T05:55:00.553Z,90
2022-10-31T05:56:04.900Z,90
2022-10-31T05:57:09.052Z,90
2022-10-31T05:58:13.178Z,90
2022-10-31T05:59:17.241Z,91
2022-10-31T06:00:21.849Z,90
2022-10-31T06:01:26.347Z,90
2022-10-31T06:02:30.404Z,90
2022-10-31T06:03:34.518Z,90
2022-10-31T06:04:38.652Z,90
2022-10-31T06:05:43.006Z,90
2022-10-31T06:06:47.434Z,90
2022-10-31T06:07:51.878Z,90
2022-10-31T06:08:56.217Z,90
2022-10-31T06:10:00.452Z,90
2022-10-31T06:11:04.426Z,90
2022-10-31T06:12:08.702Z,90
2022-10-31T06:13:13.257Z,90
2022-10-31T06:14:17.329Z,89
2022-10-31T06:15:24.318Z,90
2022-10-31T06:16:25.512Z,90
2022-10-31T06:17:30.065Z,90
2022-10-31T06:18:34.148Z,90
2022-10-31T06:19:38.365Z,90
2022-10-31T06:20:42.425Z,90
2022-10-31T06:21:46.941Z,90
2022-10-31T06:22:50.928Z,90
2022-10-31T06:23:55.117Z,90
2022-10-31T06:24:59.581Z,90
2022-10-31T06:26:03.737Z,90
2022-10-31T06:27:07.850Z,90
2022-10-31T06:28:11.876Z,90
2022-10-31T06:29:16.024Z,90
2022-10-31T06:30:20.321Z,90
2022-10-31T06:31:24.864Z,90
2022-10-31T06:32:29.396Z,90
2022-10-31T06:33:34.017Z,90
2022-10-31T06:34:38.606Z,90
2022-10-31T06:35:43.261Z,90
2022-10-31T06:36:47.566Z,90
2022-10-31T06:37:52.201Z,90
2022-10-31T06:38:56.212Z,90
2022-10-31T06:40:00.262Z,90
2022-10-31T06:41:04.966Z,90
2022-10-31T06:42:09.029Z,89
2022-10-31T06:43:13.588Z,90
2022-10-31T06:44:17.689Z,89
2022-10-31T06:45:22.230Z,90
2022-10-31T06:46:26.800Z,89
2022-10-31T06:47:30.800Z,90
2022-10-31T06:48:34.884Z,89
2022-10-31T06:49:39.027Z,90
2022-10-31T06:50:43.592Z,90
2022-10-31T06:51:47.661Z,90
2022-10-31T06:52:52.428Z,89
2022-10-31T06:53:56.772Z,90
2022-10-31T06:55:00.860Z,89
2022-10-31T06:56:05.582Z,89
2022-10-31T06:57:10.100Z,89
2022-10-31T06:58:14.664Z,89
2022-10-31T06:59:18.824Z,89
2022-10-31T07:00:23.280Z,89
2022-10-31T07:01:27.551Z,89
2022-10-31T07:02:32.077Z,89
2022-10-31T07:03:36.653Z,89
2022-10-31T07:04:41.358Z,89
2022-10-31T07:05:45.837Z,90
2022-10-31T07:06:51.893Z,89
2022-10-31T07:07:54.586Z,89
2022-10-31T07:08:58.968Z,90
2022-10-31T07:10:03.441Z,90
2022-10-31T07:11:07.749Z,90
2022-10-31T07:12:11.839Z,90
2022-10-31T07:13:16.397Z,90
2022-10-31T07:14:20.386Z,89
2022-10-31T07:15:24.453Z,89
2022-10-31T07:16:28.944Z,89
2022-10-31T07:17:33.140Z,89
2022-10-31T07:18:37.296Z,89
2022-10-31T07:19:41.842Z,90
2022-10-31T07:20:46.508Z,89
2022-10-31T07:21:50.980Z,89
2022-10-31T07:22:54.978Z,89
2022-10-31T07:23:59.157Z,89
2022-10-31T07:25:03.751Z,89
2022-10-31T07:26:08.276Z,89
2022-10-31T07:27:12.384Z,89
2022-10-31T07:28:16.568Z,89
2022-10-31T07:29:21.148Z,89
2022-10-31T07:30:25.700Z,89
2022-10-31T07:31:30.308Z,89
2022-10-31T07:32:34.808Z,88
2022-10-31T07:33:42.005Z,88
2022-10-31T07:34:47.495Z,88
2022-10-31T07:35:51.552Z,88
2022-10-31T07:36:55.637Z,88
2022-10-31T07:38:00.037Z,88
2022-10-31T07:39:11.904Z,88
2022-10-31T07:40:16.029Z,88
2022-10-31T07:41:20.260Z,88
2022-10-31T07:42:24.640Z,88
2022-10-31T07:43:28.820Z,88
2022-10-31T07:44:33.269Z,88
2022-10-31T07:45:37.589Z,88
2022-10-31T07:46:42.053Z,87
2022-10-31T07:47:46.047Z,88
2022-10-31T07:48:50.079Z,87
2022-10-31T07:49:54.280Z,87
2022-10-31T07:50:58.468Z,88
2022-10-31T07:52:02.980Z,88
2022-10-31T07:53:07.208Z,88
2022-10-31T07:54:11.842Z,87
2022-10-31T07:55:17.041Z,87
2022-10-31T07:56:21.224Z,88
2022-10-31T07:57:25.622Z,87
2022-10-31T07:58:29.984Z,88
2022-10-31T07:59:34.468Z,88
2022-10-31T08:00:38.611Z,87
2022-10-31T08:01:43.589Z,87
2022-10-31T08:02:47.675Z,87
2022-10-31T08:04:00.148Z,87
2022-10-31T08:05:04.657Z,87
2022-10-31T08:06:09.092Z,87
2022-10-31T08:07:13.596Z,87
2022-10-31T08:08:17.886Z,87
2022-10-31T08:09:22.292Z,87
2022-10-31T08:10:26.389Z,88
2022-10-31T08:11:30.809Z,87
2022-10-31T08:12:35.110Z,87
2022-10-31T08:13:39.244Z,87
2022-10-31T08:14:43.668Z,88
2022-10-31T08:15:47.816Z,87
2022-10-31T08:16:52.545Z,87
2022-10-31T08:17:57.186Z,87
2022-10-31T08:19:01.032Z,87
2022-10-31T08:20:05.181Z,87
2022-10-31T08:21:09.708Z,86
2022-10-31T08:22:13.772Z,86
2022-10-31T08:23:17.976Z,86
2022-10-31T08:24:22.456Z,86
2022-10-31T08:25:26.981Z,87
2022-10-31T08:26:31.105Z,86
2022-10-31T08:27:35.117Z,86
2022-10-31T08:28:39.192Z,86
2022-10-31T08:29:43.312Z,86
2022-10-31T08:30:47.404Z,86
2022-10-31T08:31:51.484Z,86
2022-10-31T08:32:55.588Z,86
2022-10-31T08:34:03.242Z,86
2022-10-31T08:35:07.641Z,86
2022-10-31T08:36:11.823Z,86
2022-10-31T08:37:15.962Z,86
2022-10-31T08:38:20.646Z,85
2022-10-31T08:39:25.172Z,86
2022-10-31T08:40:29.620Z,86
2022-10-31T08:41:33.721Z,85
2022-10-31T08:42:37.788Z,86
2022-10-31T08:43:41.930Z,85
2022-10-31T08:44:46.620Z,85
2022-10-31T08:45:51.204Z,85
2022-10-31T08:46:55.749Z,85
2022-10-31T08:48:00.643Z,85
2022-10-31T08:49:04.932Z,85
2022-10-31T08:50:09.007Z,85
2022-10-31T08:51:13.580Z,85
2022-10-31T08:52:17.684Z,85
2022-10-31T08:53:22.220Z,85
2022-10-31T08:54:26.748Z,85
2022-10-31T08:55:31.425Z,85
2022-10-31T08:56:35.936Z,85
2022-10-31T08:57:40.444Z,85
2022-10-31T08:58:44.656Z,84
2022-10-31T08:59:49.269Z,85
2022-10-31T09:00:53.882Z,85
2022-10-31T09:02:01.127Z,84
2022-10-31T09:03:05.468Z,85
2022-10-31T09:04:15.237Z,84
2022-10-31T09:05:19.863Z,84
2022-10-31T09:06:24.407Z,84
2022-10-31T09:07:28.820Z,84
2022-10-31T09:08:33.115Z,84
2022-10-31T09:09:37.733Z,84
2022-10-31T09:10:42.196Z,84
2022-10-31T09:11:46.760Z,83
2022-10-31T09:12:50.801Z,84
2022-10-31T09:14:00.420Z,84
2022-10-31T09:15:04.501Z,83
2022-10-31T09:16:09.168Z,83
2022-10-31T09:17:13.203Z,83
2022-10-31T09:18:17.977Z,83
2022-10-31T09:19:22.454Z,83
2022-10-31T09:20:27.060Z,83
2022-10-31T09:21:31.980Z,82
2022-10-31T09:22:37.552Z,83
2022-10-31T09:23:42.459Z,83
2022-10-31T09:24:47.228Z,83
2022-10-31T09:25:51.638Z,82
2022-10-31T09:26:56.136Z,82
2022-10-31T09:28:00.842Z,82
2022-10-31T09:29:05.355Z,81
2022-10-31T09:30:09.704Z,81
2022-10-31T09:31:13.988Z,81
2022-10-31T09:32:18.674Z,81
2022-10-31T09:33:23.168Z,81
2022-10-31T09:34:27.786Z,81
2022-10-31T09:35:32.388Z,80
2022-10-31T09:36:36.973Z,80
2022-10-31T09:37:41.548Z,80
2022-10-31T09:38:46.278Z,80
2022-10-31T09:39:50.548Z,80
2022-10-31T09:40:54.765Z,80
2022-10-31T09:42:07.073Z,80
2022-10-31T09:43:16.615Z,80
2022-10-31T09:44:26.860Z,80
2022-10-31T09:45:41.560Z,80
2022-10-31T09:46:46.060Z,79
2022-10-31T09:48:01.282Z,79
2022-10-31T09:49:13.093Z,79
2022-10-31T09:50:27.772Z,78
2022-10-31T09:51:42.608Z,78
2022-10-31T09:52:46.680Z,78
2022-10-31T09:53:53.808Z,78
2022-10-31T09:55:08.612Z,78
2022-10-31T09:56:18.847Z,79
2022-10-31T09:57:23.287Z,78
2022-10-31T09:58:27.417Z,78
2022-10-31T09:59:31.526Z,78
2022-10-31T10:00:36.085Z,78
2022-10-31T10:01:40.349Z,78
2022-10-31T10:02:47.288Z,78
2022-10-31T10:03:51.866Z,78
2022-10-31T10:04:56.424Z,78
2022-10-31T10:06:06.736Z,78
2022-10-31T10:07:19.347Z,78
2022-10-31T10:08:32.320Z,78
2022-10-31T10:09:36.934Z,78
2022-10-31T10:10:41.177Z,77
2022-10-31T10:11:53.385Z,77
2022-10-31T10:13:04.824Z,77
2022-10-31T10:14:07.080Z,77
2022-10-31T10:15:21.831Z,77
2022-10-31T10:16:31.395Z,77
2022-10-31T10:17:38.024Z,77
2022-10-31T10:18:50.259Z,77
2022-10-31T10:20:04.992Z,77
2022-10-31T10:21:19.784Z,77
2022-10-31T10:22:29.443Z,78
2022-10-31T10:23:33.475Z,77
2022-10-31T10:24:45.746Z,77
2022-10-31T10:25:55.408Z,77
2022-10-31T10:26:59.604Z,77
2022-10-31T10:28:11.861Z,77
2022-10-31T10:29:18.884Z,77
2022-10-31T10:30:29.539Z,77
2022-10-31T10:31:33.631Z,76
2022-10-31T10:32:37.639Z,76
2022-10-31T10:33:46.828Z,76
2022-10-31T10:35:01.563Z,76
2022-10-31T10:36:16.028Z,76
2022-10-31T10:37:20.945Z,76
2022-10-31T10:38:28.091Z,76
2022-10-31T10:39:42.907Z,76
2022-10-31T10:40:47.452Z,75
2022-10-31T10:41:51.744Z,74
2022-10-31T10:43:01.120Z,74
2022-10-31T10:44:15.980Z,74
2022-10-31T10:45:20.544Z,74
2022-10-31T10:46:30.229Z,73
2022-10-31T10:47:42.380Z,73
2022-10-31T10:48:46.969Z,73
2022-10-31T10:49:56.627Z,73
2022-10-31T10:51:00.952Z,73
2022-10-31T10:52:39.563Z,73
2022-10-31T10:53:14.972Z,72
2022-10-31T10:54:27.387Z,73
2022-10-31T10:55:41.900Z,73
2022-10-31T10:56:51.746Z,74
2022-10-31T10:57:56.107Z,73
2022-10-31T10:59:00.264Z,73
2022-10-31T11:00:04.942Z,74
2022-10-31T11:02:18.631Z,74
2022-10-31T11:03:25.656Z,74
2022-10-31T11:04:29.863Z,74
2022-10-31T11:05:36.900Z,73
2022-10-31T11:06:40.916Z,72
2022-10-31T11:07:44.997Z,71
2022-10-31T11:08:49.272Z,71
2022-10-31T11:09:53.748Z,72
2022-10-31T11:10:57.952Z,73
2022-10-31T11:12:10.687Z,72
2022-10-31T11:13:17.707Z,72
2022-10-31T11:14:24.771Z,72
2022-10-31T11:15:29.632Z,72
2022-10-31T11:16:38.191Z,71
2022-10-31T11:17:37.959Z,69
2022-10-31T11:18:42.150Z,69
2022-10-31T11:19:46.700Z,70
2022-10-31T11:20:51.359Z,70
2022-10-31T11:21:56.011Z,71
2022-10-31T11:23:08.360Z,71
2022-10-31T11:24:20.852Z,71
2022-10-31T11:25:25.359Z,71
2022-10-31T11:26:29.455Z,70
2022-10-31T11:27:34.077Z,70
2022-10-31T11:28:38.271Z,71
2022-10-31T11:29:42.785Z,70
2022-10-31T11:30:47.351Z,69
2022-10-31T11:31:59.467Z,68
2022-10-31T11:33:03.840Z,68
2022-10-31T11:34:07.692Z,67
2022-10-31T11:35:14.815Z,67
2022-10-31T11:36:18.972Z,67
2022-10-31T11:37:23.053Z,66
2022-10-31T11:38:32.564Z,64
2022-10-31T11:39:36.643Z,64
2022-10-31T11:40:40.760Z,63
2022-10-31T11:41:44.908Z,63
2022-10-31T11:42:49.077Z,63
2022-10-31T11:43:53.610Z,63
2022-10-31T11:44:57.692Z,63
2022-10-31T11:46:01.876Z,62
2022-10-31T11:47:11.459Z,62
2022-10-31T11:48:16.103Z,63
2022-10-31T11:49:20.535Z,63
2022-10-31T11:50:29.847Z,63
2022-10-31T11:51:36.923Z,64
2022-10-31T11:52:41.165Z,65
2022-10-31T11:53:45.583Z,65
2022-10-31T11:54:52.779Z,64
2022-10-31T11:56:00.018Z,64
2022-10-31T11:57:07.569Z,64
2022-10-31T11:58:17.377Z,64
2022-10-31T11:59:21.724Z,64
2022-10-31T12:01:33.636Z,64
2022-10-31T12:02:37.679Z,63
2022-10-31T12:03:42.327Z,64
2022-10-31T12:04:46.871Z,64
2022-10-31T12:05:59.037Z,64
2022-10-31T12:07:13.838Z,63
2022-10-31T12:08:17.967Z,63
2022-10-31T12:09:22.732Z,64
2022-10-31T12:10:30.167Z,64
2022-10-31T12:11:40.243Z,63
2022-10-31T12:12:47.328Z,64
2022-10-31T12:13:59.829Z,64
2022-10-31T12:15:01.227Z,64
2022-10-31T12:16:13.334Z,64
2022-10-31T12:17:20.551Z,63
2022-10-31T12:18:27.685Z,63
2022-10-31T12:19:35.148Z,63
2022-10-31T12:20:47.530Z,62
2022-10-31T12:21:59.715Z,62
2022-10-31T12:23:06.823Z,62
2022-10-31T12:24:16.207Z,62
2022-10-31T12:25:25.656Z,62
2022-10-31T12:26:34.795Z,64
2022-10-31T12:27:44.007Z,64
2022-10-31T12:28:55.305Z,64
2022-10-31T12:30:00.426Z,63
2022-10-31T12:31:09.967Z,62
2022-10-31T12:32:24.338Z,62
2022-10-31T12:33:28.787Z,61
2022-10-31T12:34:37.987Z,61
2022-10-31T12:35:52.351Z,62
2022-10-31T12:37:02.040Z,61
2022-10-31T12:38:11.675Z,62
2022-10-31T12:39:26.403Z,61
2022-10-31T12:40:41.290Z,61
2022-10-31T12:41:51.383Z,61
2022-10-31T12:43:06.315Z,62
2022-10-31T12:44:20.794Z,62
2022-10-31T12:45:35.546Z,61
2022-10-31T12:46:49.983Z,61
2022-10-31T12:48:04.639Z,61
2022-10-31T12:49:11.771Z,62
2022-10-31T12:50:18.890Z,62
2022-10-31T12:51:28.539Z,61
2022-10-31T12:52:40.383Z,61
2022-10-31T12:53:49.999Z,61
2022-10-31T12:55:04.741Z,61
2022-10-31T12:56:19.499Z,61
2022-10-31T12:57:23.898Z,62
2022-10-31T12:58:38.396Z,61
2022-10-31T12:59:50.514Z,61
2022-10-31T13:00:59.869Z,61
2022-10-31T13:02:09.411Z,61
2022-10-31T13:03:18.635Z,61
2022-10-31T13:04:25.682Z,61
2022-10-31T13:05:38.458Z,62
2022-10-31T13:06:44.831Z,61
2022-10-31T13:07:52.703Z,62
2022-10-31T13:09:07.453Z,62
2022-10-31T13:10:19.786Z,62
2022-10-31T13:11:34.414Z,63
2022-10-31T13:12:47.235Z,63
2022-10-31T13:13:51.707Z,63
2022-10-31T13:15:06.506Z,63
2022-10-31T13:16:13.852Z,63
2022-10-31T13:17:18.383Z,63
2022-10-31T13:18:32.926Z,63
2022-10-31T13:19:45.179Z,63
2022-10-31T13:20:52.988Z,63
2022-10-31T13:21:53.395Z,63
2022-10-31T13:22:57.636Z,63
2022-10-31T13:24:07.619Z,63
2022-10-31T13:25:11.894Z,63
2022-10-31T13:26:21.582Z,63
2022-10-31T13:27:28.963Z,63
2022-10-31T13:28:38.247Z,64
2022-10-31T13:29:42.768Z,64
2022-10-31T13:30:55.087Z,64
2022-10-31T13:31:59.656Z,63
2022-10-31T13:33:06.676Z,63
2022-10-31T13:34:13.936Z,63
2022-10-31T13:35:28.518Z,63
2022-10-31T13:36:43.400Z,63
2022-10-31T13:37:52.280Z,63
2022-10-31T13:39:02.767Z,63
2022-10-31T13:40:17.615Z,62
2022-10-31T13:41:29.644Z,63
2022-10-31T13:42:39.303Z,62
2022-10-31T13:43:54.031Z,62
2022-10-31T13:45:00.653Z,63
2022-10-31T13:46:15.427Z,63
2022-10-31T13:47:27.736Z,63
2022-10-31T13:48:31.787Z,63
2022-10-31T13:49:35.807Z,63
2022-10-31T13:50:39.867Z,63
2022-10-31T13:51:44.070Z,63
2022-10-31T13:52:48.694Z,63
2022-10-31T13:53:53.186Z,63
2022-10-31T13:54:57.284Z,63
2022-10-31T13:56:01.449Z,63
2022-10-31T13:57:11.083Z,63
2022-10-31T13:58:20.732Z,63
2022-10-31T13:59:27.830Z,63
2022-10-31T14:00:31.987Z,63
2022-10-31T14:01:36.707Z,63
2022-10-31T14:02:40.607Z,63
2022-10-31T14:04:49.810Z,63
2022-10-31T14:05:56.798Z,64
2022-10-31T14:07:00.879Z,64
2022-10-31T14:08:11.222Z,64
2022-10-31T14:09:18.254Z,64
2022-10-31T14:10:22.480Z,64
2022-10-31T14:11:36.345Z,64
2022-10-31T14:12:39.602Z,65
2022-10-31T14:13:44.078Z,65
2022-10-31T14:14:48.199Z,65
2022-10-31T14:15:52.248Z,65
2022-10-31T14:17:01.935Z,65
2022-10-31T14:18:05.991Z,65
2022-10-31T14:19:10.250Z,65
2022-10-31T14:20:19.690Z,66
2022-10-31T14:21:31.915Z,66
2022-10-31T14:22:42.551Z,66
2022-10-31T14:23:43.218Z,66
2022-10-31T14:24:47.692Z,65
2022-10-31T14:25:51.891Z,65
2022-10-31T14:26:56.370Z,65
2022-10-31T14:28:00.795Z,65
2022-10-31T14:29:04.584Z,65
2022-10-31T14:30:16.815Z,65
2022-10-31T14:31:21.492Z,65
2022-10-31T14:32:31.015Z,65
2022-10-31T14:33:35.115Z,65
2022-10-31T14:34:39.219Z,65
2022-10-31T14:35:43.262Z,65
2022-10-31T14:36:55.547Z,65
2022-10-31T14:38:10.226Z,66
2022-10-31T14:39:17.583Z,66
2022-10-31T14:40:29.635Z,66
2022-10-31T14:41:39.330Z,66
2022-10-31T14:42:54.051Z,66
2022-10-31T14:44:08.826Z,67
2022-10-31T14:45:13.375Z,67
2022-10-31T14:46:23.034Z,67
2022-10-31T14:47:37.778Z,68
2022-10-31T14:48:47.556Z,68
2022-10-31T14:49:57.572Z,68
2022-10-31T14:51:07.818Z,68
2022-10-31T14:52:12.298Z,69
2022-10-31T14:53:16.490Z,69
2022-10-31T14:54:29.134Z,69
2022-10-31T14:55:36.326Z,69
2022-10-31T14:56:40.490Z,69
2022-10-31T14:57:52.718Z,70
2022-10-31T14:59:02.394Z,70
2022-10-31T15:00:09.646Z,70
2022-10-31T15:01:13.747Z,70
2022-10-31T15:02:23.098Z,70
2022-10-31T15:03:30.414Z,70
2022-10-31T15:04:37.651Z,71
2022-10-31T15:05:41.856Z,71
2022-10-31T15:06:48.841Z,71
2022-10-31T15:07:52.942Z,72
2022-10-31T15:08:57.015Z,72
2022-10-31T15:10:01.685Z,72
2022-10-31T15:11:06.218Z,73
2022-10-31T15:12:10.170Z,73
2022-10-31T15:13:22.719Z,74
2022-10-31T15:14:27.203Z,74
2022-10-31T15:15:31.720Z,74
2022-10-31T15:16:36.195Z,74
2022-10-31T15:17:40.298Z,74
2022-10-31T15:18:44.416Z,74
2022-10-31T15:19:51.584Z,74
2022-10-31T15:20:55.611Z,75
2022-10-31T15:21:59.686Z,75
2022-10-31T15:23:03.796Z,75
2022-10-31T15:24:08.104Z,75
2022-10-31T15:25:12.546Z,75
2022-10-31T15:26:22.415Z,75
2022-10-31T15:27:29.854Z,75
2022-10-31T15:28:33.922Z,75
2022-10-31T15:29:37.958Z,75
2022-10-31T15:30:50.130Z,75
2022-10-31T15:31:54.298Z,75
2022-10-31T15:32:59.304Z,75
2022-10-31T15:34:02.566Z,76
2022-10-31T15:35:06.671Z,76
2022-10-31T15:36:11.175Z,76
2022-10-31T15:37:20.754Z,76
2022-10-31T15:38:24.883Z,76
2022-10-31T15:39:29.499Z,76
2022-10-31T15:40:33.514Z,76
2022-10-31T15:41:37.642Z,76
2022-10-31T15:42:45.283Z,77
2022-10-31T15:43:54.959Z,77
2022-10-31T15:44:59.521Z,77
2022-10-31T15:46:11.703Z,77